Time,TemperatureF,DewpointF,PressureIn,WindDirection,WindDirectionDegrees,WindSpeedMPH,WindSpeedGustMPH,Humidity,HourlyPrecipIn,Conditions,Clouds,dailyrainin,SoftwareType,DateUTC
2013-11-25 00:22:00,19.0,-1.0,30.16,WNW,286,5.0,16.0,41,0.00,,,0.00,,2013-11-25 05:22:00,
2013-11-25 00:43:00,19.0,-1.0,30.16,WNW,287,6.0,15.0,40,0.00,,,0.00,,2013-11-25 05:43:00,
2013-11-25 00:52:00,19.0,-2.0,30.17,WNW,292,7.0,14.0,39,0.00,,,0.00,,2013-11-25 05:52:00,
2013-11-25 01:12:00,18.0,-2.0,30.19,West,273,4.0,13.0,41,0.00,,,0.00,,2013-11-25 06:12:00,
2013-11-25 01:22:00,18.0,-2.0,30.19,West,273,4.0,13.0,41,0.00,,,0.00,,2013-11-25 06:22:00,
2013-11-25 01:42:00,18.0,-2.0,30.19,WNW,286,5.0,14.0,41,0.00,,,0.00,,2013-11-25 06:42:00,
2013-11-25 01:52:00,18.0,-2.0,30.19,WNW,286,5.0,14.0,41,0.00,,,0.00,,2013-11-25 06:52:00,
2013-11-25 02:11:00,18.0,-1.0,30.20,WNW,283,5.0,11.0,43,0.00,,,0.00,,2013-11-25 07:11:00,
2013-11-25 02:21:00,18.0,-1.0,30.20,WNW,283,5.0,11.0,43,0.00,,,0.00,,2013-11-25 07:21:00,
2013-11-25 02:42:00,17.0,-2.0,30.20,West,279,6.0,15.0,43,0.00,,,0.00,,2013-11-25 07:42:00,
2013-11-25 02:52:00,17.0,-2.0,30.20,West,279,6.0,15.0,43,0.00,,,0.00,,2013-11-25 07:52:00,
2013-11-25 03:11:00,17.0,-2.0,30.21,West,280,5.0,12.0,43,0.00,,,0.00,,2013-11-25 08:11:00,
2013-11-25 03:22:00,17.0,-2.0,30.21,West,280,5.0,12.0,43,0.00,,,0.00,,2013-11-25 08:22:00,
2013-11-25 03:42:00,17.0,-1.0,30.23,West,278,5.0,12.0,44,0.00,,,0.00,,2013-11-25 08:42:00,
2013-11-25 03:52:00,17.0,-1.0,30.23,West,278,5.0,12.0,44,0.00,,,0.00,,2013-11-25 08:52:00,
2013-11-25 04:11:00,16.0,-2.0,30.24,West,279,4.0,12.0,44,0.00,,,0.00,,2013-11-25 09:11:00,
2013-11-25 04:22:00,16.0,-2.0,30.24,West,279,4.0,12.0,44,0.00,,,0.00,,2013-11-25 09:22:00,
2013-11-25 04:43:00,16.0,-2.0,30.25,West,271,3.0,10.0,45,0.00,,,0.00,,2013-11-25 09:43:00,
2013-11-25 04:53:00,16.0,-1.0,30.26,WNW,284,3.0,8.0,46,0.00,,,0.00,,2013-11-25 09:53:00,
2013-11-25 05:12:00,15.0,-2.0,30.27,West,276,2.0,7.0,47,0.00,,,0.00,,2013-11-25 10:12:00,
2013-11-25 05:23:00,15.0,-1.0,30.28,West,277,4.0,10.0,48,0.00,,,0.00,,2013-11-25 10:23:00,
2013-11-25 05:42:00,15.0,-1.0,30.28,WNW,289,3.0,7.0,48,0.00,,,0.00,,2013-11-25 10:42:00,
2013-11-25 05:53:00,15.0,-1.0,30.28,WNW,289,3.0,7.0,48,0.00,,,0.00,,2013-11-25 10:53:00,
2013-11-25 06:12:00,14.0,-2.0,30.28,West,280,2.0,6.0,49,0.00,,,0.00,,2013-11-25 11:12:00,
2013-11-25 06:22:00,14.0,-2.0,30.28,West,280,2.0,6.0,49,0.00,,,0.00,,2013-11-25 11:22:00,
2013-11-25 06:43:00,16.0,-1.0,30.29,WNW,285,4.0,10.0,46,0.00,,,0.00,,2013-11-25 11:43:00,
2013-11-25 06:52:00,16.0,-1.0,30.29,WNW,285,4.0,10.0,46,0.00,,,0.00,,2013-11-25 11:52:00,
2013-11-25 07:02:00,16.0,-1.0,30.29,WNW,285,4.0,10.0,46,0.00,,,0.00,,2013-11-25 12:02:00,
2013-11-25 07:12:00,16.0,-1.0,30.29,WNW,285,4.0,10.0,46,0.00,,,0.00,,2013-11-25 12:12:00,
2013-11-25 07:22:00,15.0,0.0,30.32,West,274,2.0,6.0,51,0.00,,,0.00,,2013-11-25 12:22:00,
2013-11-25 07:42:00,15.0,-2.0,30.31,West,278,3.0,7.0,46,0.00,,,0.00,,2013-11-25 12:42:00,
2013-11-25 07:52:00,15.0,-2.0,30.31,West,278,3.0,7.0,46,0.00,,,0.00,,2013-11-25 12:52:00,
2013-11-25 08:12:00,17.0,-2.0,30.32,WNW,284,4.0,11.0,42,0.00,,,0.00,,2013-11-25 13:12:00,
2013-11-25 08:22:00,17.0,-2.0,30.32,WNW,282,4.0,10.0,42,0.00,,,0.00,,2013-11-25 13:22:00,
2013-11-25 08:42:00,18.0,-3.0,30.33,WNW,285,6.0,16.0,38,0.00,,,0.00,,2013-11-25 13:42:00,
2013-11-25 08:52:00,18.0,-4.0,30.34,WNW,285,7.0,14.0,37,0.00,,,0.00,,2013-11-25 13:52:00,
2013-11-25 09:11:00,19.0,-4.0,30.33,WNW,286,6.0,13.0,36,0.00,,,0.00,,2013-11-25 14:11:00,
2013-11-25 09:22:00,19.0,-4.0,30.33,WNW,286,6.0,13.0,36,0.00,,,0.00,,2013-11-25 14:22:00,
2013-11-25 09:42:00,22.0,-3.0,30.34,WNW,288,6.0,18.0,32,0.00,,,0.00,,2013-11-25 14:42:00,
2013-11-25 09:52:00,22.0,-3.0,30.34,West,278,6.0,16.0,32,0.00,,,0.00,,2013-11-25 14:52:00,
2013-11-25 10:22:00,24.0,-4.0,30.35,WNW,286,7.0,20.0,28,0.00,,,0.00,,2013-11-25 15:22:00,
2013-11-25 10:33:00,24.0,-4.0,30.35,WNW,286,7.0,20.0,28,0.00,,,0.00,,2013-11-25 15:33:00,
2013-11-25 10:44:00,24.0,-4.0,30.35,WNW,286,7.0,20.0,28,0.00,,,0.00,,2013-11-25 15:44:00,
2013-11-25 10:54:00,25.0,-6.0,30.34,WNW,286,7.0,16.0,25,0.00,,,0.00,,2013-11-25 15:54:00,
2013-11-25 11:13:00,26.0,-6.0,30.34,WNW,282,6.0,13.0,24,0.00,,,0.00,,2013-11-25 16:13:00,
2013-11-25 11:23:00,26.0,-6.0,30.34,WNW,282,6.0,13.0,24,0.00,,,0.00,,2013-11-25 16:23:00,
2013-11-25 11:43:00,28.0,-6.0,30.32,WNW,290,6.0,12.0,22,0.00,,,0.00,,2013-11-25 16:43:00,
2013-11-25 11:52:00,28.0,-7.0,30.33,WNW,298,5.0,15.0,21,0.00,,,0.00,,2013-11-25 16:52:00,
2013-11-25 12:22:00,29.0,-7.0,30.32,WNW,296,7.0,15.0,20,0.00,,,0.00,,2013-11-25 17:22:00,
2013-11-25 12:43:00,29.0,-4.0,30.32,WNW,290,4.0,10.0,23,0.00,,,0.00,,2013-11-25 17:43:00,
2013-11-25 12:52:00,29.0,-5.0,30.32,West,280,6.0,17.0,22,0.00,,,0.00,,2013-11-25 17:52:00,
2013-11-25 13:12:00,30.0,-2.0,30.32,West,281,6.0,18.0,24,0.00,,,0.00,,2013-11-25 18:12:00,
2013-11-25 13:22:00,30.0,-2.0,30.32,West,281,6.0,18.0,24,0.00,,,0.00,,2013-11-25 18:22:00,
2013-11-25 13:42:00,30.0,-2.0,30.29,West,281,5.0,14.0,25,0.00,,,0.00,,2013-11-25 18:42:00,
2013-11-25 13:52:00,30.0,-2.0,30.29,West,281,5.0,14.0,25,0.00,,,0.00,,2013-11-25 18:52:00,
2013-11-25 14:11:00,32.0,1.0,30.29,WNW,283,4.0,10.0,26,0.00,,,0.00,,2013-11-25 19:11:00,
2013-11-25 14:22:00,32.0,2.0,30.29,West,272,2.0,8.0,27,0.00,,,0.00,,2013-11-25 19:22:00,
2013-11-25 14:42:00,32.0,1.0,30.29,West,262,3.0,6.0,26,0.00,,,0.00,,2013-11-25 19:42:00,
2013-11-25 14:52:00,32.0,3.0,30.29,West,262,2.0,5.0,28,0.00,,,0.00,,2013-11-25 19:52:00,
2013-11-25 15:22:00,32.0,3.0,30.29,WSW,258,2.0,5.0,29,0.00,,,0.00,,2013-11-25 20:22:00,
2013-11-25 15:42:00,32.0,4.0,30.29,West,279,4.0,10.0,30,0.00,,,0.00,,2013-11-25 20:42:00,
2013-11-25 15:52:00,32.0,4.0,30.29,West,279,4.0,10.0,30,0.00,,,0.00,,2013-11-25 20:52:00,
2013-11-25 16:11:00,32.0,7.0,30.30,WNW,284,1.0,3.0,34,0.00,,,0.00,,2013-11-25 21:11:00,
2013-11-25 16:22:00,32.0,7.0,30.30,WNW,284,1.0,3.0,34,0.00,,,0.00,,2013-11-25 21:22:00,
2013-11-25 16:44:00,30.0,8.0,30.30,SW,233,1.0,3.0,38,0.00,,,0.00,,2013-11-25 21:44:00,
2013-11-25 16:53:00,30.0,8.0,30.30,SW,233,0.0,3.0,38,0.00,,,0.00,,2013-11-25 21:53:00,
2013-11-25 17:13:00,29.0,8.0,30.29,SW,232,0.0,2.0,40,0.00,,,0.00,,2013-11-25 22:13:00,
2013-11-25 17:23:00,28.0,7.0,30.30,SW,232,0.0,1.0,40,0.00,,,0.00,,2013-11-25 22:23:00,
2013-11-25 17:43:00,28.0,9.0,30.30,SW,232,0.0,1.0,44,0.00,,,0.00,,2013-11-25 22:43:00,
2013-11-25 17:52:00,27.0,9.0,30.30,SW,232,0.0,1.0,46,0.00,,,0.00,,2013-11-25 22:52:00,
2013-11-25 18:12:00,27.0,9.0,30.30,SW,232,0.0,3.0,47,0.00,,,0.00,,2013-11-25 23:12:00,
2013-11-25 18:22:00,26.0,10.0,30.29,SSW,206,0.0,3.0,51,0.00,,,0.00,,2013-11-25 23:22:00,
2013-11-25 18:42:00,25.0,10.0,30.30,SSW,203,1.0,8.0,53,0.00,,,0.00,,2013-11-25 23:42:00,
2013-11-25 18:52:00,25.0,10.0,30.30,SSW,203,1.0,8.0,53,0.00,,,0.00,,2013-11-25 23:52:00,
2013-11-25 19:11:00,26.0,10.0,30.29,SW,219,1.0,6.0,51,0.00,,,0.00,,2013-11-26 00:11:00,
2013-11-25 19:22:00,27.0,11.0,30.29,SW,227,2.0,8.0,51,0.00,,,0.00,,2013-11-26 00:22:00,
2013-11-25 19:42:00,28.0,12.0,30.29,SW,219,2.0,9.0,51,0.00,,,0.00,,2013-11-26 00:42:00,
2013-11-25 19:52:00,28.0,12.0,30.29,SW,219,2.0,9.0,51,0.00,,,0.00,,2013-11-26 00:52:00,
2013-11-25 20:22:00,28.0,12.0,30.29,SSW,204,2.0,8.0,51,0.00,,,0.00,,2013-11-26 01:22:00,
2013-11-25 20:42:00,28.0,12.0,30.29,SW,215,2.0,8.0,50,0.00,,,0.00,,2013-11-26 01:42:00,
2013-11-25 20:52:00,29.0,13.0,30.28,SSE,161,1.0,5.0,50,0.00,,,0.00,,2013-11-26 01:52:00,
2013-11-25 21:11:00,29.0,13.0,30.28,SSW,192,0.0,4.0,50,0.00,,,0.00,,2013-11-26 02:11:00,
2013-11-25 21:22:00,29.0,13.0,30.27,SSW,193,0.0,1.0,50,0.00,,,0.00,,2013-11-26 02:22:00,
2013-11-25 21:42:00,29.0,13.0,30.26,SSE,151,0.0,3.0,50,0.00,,,0.00,,2013-11-26 02:42:00,
2013-11-25 21:52:00,29.0,13.0,30.26,SSE,151,0.0,3.0,50,0.00,,,0.00,,2013-11-26 02:52:00,
2013-11-25 22:02:00,29.0,13.0,30.26,SSE,151,0.0,3.0,50,0.00,,,0.00,,2013-11-26 03:02:00,
2013-11-25 22:22:00,29.0,13.0,30.26,SSW,199,1.0,5.0,51,0.00,,,0.00,,2013-11-26 03:22:00,
2013-11-25 22:44:00,29.0,13.0,30.25,South,173,0.0,4.0,51,0.00,,,0.00,,2013-11-26 03:44:00,
2013-11-25 22:54:00,29.0,13.0,30.25,South,185,0.0,3.0,51,0.00,,,0.00,,2013-11-26 03:54:00,
2013-11-25 23:13:00,29.0,13.0,30.25,South,189,0.0,4.0,51,0.00,,,0.00,,2013-11-26 04:13:00,
2013-11-25 23:23:00,29.0,13.0,30.25,South,189,0.0,4.0,51,0.00,,,0.00,,2013-11-26 04:23:00,
2013-11-25 23:34:00,29.0,13.0,30.25,South,189,0.0,4.0,51,0.00,,,0.00,,2013-11-26 04:34:00,
2013-11-25 23:43:00,29.0,13.0,30.25,South,189,0.0,4.0,51,0.00,,,0.00,,2013-11-26 04:43:00,
2013-11-25 23:53:00,30.0,15.0,30.24,SW,217,1.0,5.0,52,0.00,,,0.00,,2013-11-26 04:53:00,